Time;durP1;ratioP1;P1;durP2;ratioP2;P2;SDS_P1;SDS_P2;PMS_P1;PMS_P2;Temp;Humidity;BMP_temperature;BMP_pressure;BME280_temperature;BME280_humidity;BME280_pressure;Samples;Min_cycle;Max_cycle;Signal;HPM_P1;HPM_P2
2022/12/16 00:00:25;;;;;;;26.83;17.50;;;2.10;67.00;;;;;;5114508;28;20110;-66
2022/12/16 00:02:51;;;;;;;26.33;15.67;;;2.10;67.00;;;;;;5114767;28;20143;-66
2022/12/16 00:05:18;;;;;;;25.67;15.40;;;2.10;67.00;;;;;;5114103;28;20055;-66
2022/12/16 00:07:47;;;;;;;26.87;15.43;;;2.10;66.90;;;;;;5113920;28;20036;-66
2022/12/16 00:10:13;;;;;;;25.67;15.53;;;2.10;66.90;;;;;;5096478;28;20020;-66
2022/12/16 00:12:39;;;;;;;27.30;16.47;;;2.10;66.80;;;;;;5113499;28;20031;-67
2022/12/16 00:15:05;;;;;;;25.70;16.90;;;2.20;66.90;;;;;;5115068;28;20046;-67
2022/12/16 00:17:31;;;;;;;26.93;16.57;;;2.20;66.90;;;;;;5113927;28;20051;-65
2022/12/16 00:19:56;;;;;;;27.73;16.73;;;2.20;66.90;;;;;;5114659;28;20110;-65
2022/12/16 00:22:23;;;;;;;28.57;16.93;;;2.20;66.90;;;;;;5113089;28;20077;-65
2022/12/16 00:24:48;;;;;;;24.23;16.67;;;2.20;66.90;;;;;;5116996;27;20639;-65
2022/12/16 00:27:14;;;;;;;28.23;16.27;;;2.20;66.90;;;;;;5124155;27;20028;-65
2022/12/16 00:29:40;;;;;;;26.53;15.87;;;2.20;66.90;;;;;;5113153;28;20034;-65
2022/12/16 00:32:05;;;;;;;26.80;15.63;;;2.20;66.90;;;;;;5113021;28;20040;-65
2022/12/16 00:34:32;;;;;;;25.47;16.10;;;2.20;67.60;;;;;;5111640;28;20218;-65
2022/12/16 00:36:58;;;;;;;28.73;16.67;;;2.20;66.90;;;;;;5111547;28;20036;-65
2022/12/16 00:39:24;;;;;;;25.17;15.77;;;2.20;66.90;;;;;;5111495;28;20028;-65
2022/12/16 00:41:50;;;;;;;28.30;16.73;;;2.20;67.00;;;;;;5112923;28;20377;-65
2022/12/16 00:44:15;;;;;;;26.90;16.13;;;2.20;66.90;;;;;;5111204;28;20032;-65
2022/12/16 00:46:42;;;;;;;27.47;16.60;;;2.20;66.90;;;;;;5113437;28;20024;-65
2022/12/16 00:49:07;;;;;;;28.77;17.47;;;2.20;66.90;;;;;;5111739;28;20031;-65
2022/12/16 00:51:33;;;;;;;26.30;15.90;;;2.20;66.90;;;;;;5111719;28;20032;-66
2022/12/16 00:53:59;;;;;;;25.80;16.83;;;2.20;66.80;;;;;;5093720;28;20367;-65
2022/12/16 00:56:25;;;;;;;27.67;16.37;;;2.20;66.80;;;;;;5113910;28;20108;-65
2022/12/16 00:58:50;;;;;;;23.67;15.30;;;2.20;66.90;;;;;;5114032;28;20034;-65
2022/12/16 01:01:16;;;;;;;24.50;15.17;;;2.20;66.90;;;;;;5114022;28;20066;-65
2022/12/16 01:03:42;;;;;;;25.83;15.53;;;2.20;66.90;;;;;;5112898;28;20024;-65
2022/12/16 01:06:10;;;;;;;26.47;16.70;;;2.30;67.00;;;;;;5114230;28;20122;-65
2022/12/16 01:08:35;;;;;;;23.47;13.63;;;2.30;67.00;;;;;;5113961;28;20032;-65
2022/12/16 01:11:01;;;;;;;28.43;16.70;;;2.30;66.90;;;;;;5113035;28;20100;-65
2022/12/16 01:13:27;;;;;;;28.93;15.37;;;2.30;66.90;;;;;;5111515;28;20352;-66
2022/12/16 01:15:52;;;;;;;26.73;16.37;;;2.30;66.90;;;;;;5113265;28;20038;-65
2022/12/16 01:18:18;;;;;;;25.73;16.20;;;2.30;66.90;;;;;;5113698;28;20129;-65
2022/12/16 01:20:44;;;;;;;28.67;16.57;;;2.30;66.90;;;;;;5113182;28;20490;-65
2022/12/16 01:23:10;;;;;;;24.57;15.07;;;2.30;67.00;;;;;;5112221;28;20055;-66
2022/12/16 01:25:35;;;;;;;24.63;15.97;;;2.30;67.00;;;;;;5124091;28;20363;-65
2022/12/16 01:28:01;;;;;;;30.20;17.73;;;2.30;67.00;;;;;;5117839;28;20032;-65
2022/12/16 01:30:27;;;;;;;27.03;15.67;;;2.40;67.00;;;;;;5112786;28;20036;-65
2022/12/16 01:32:52;;;;;;;27.87;17.27;;;2.40;67.00;;;;;;5094221;28;20076;-65
2022/12/16 01:35:18;;;;;;;26.63;16.50;;;2.40;67.00;;;;;;5113626;28;20100;-65
2022/12/16 01:37:44;;;;;;;26.53;16.43;;;2.40;67.00;;;;;;5112046;28;20190;-65
2022/12/16 01:40:21;;;;;;;27.67;17.07;;;2.40;67.00;;;;;;5110457;28;20030;-65
2022/12/16 01:42:47;;;;;;;29.80;18.23;;;2.40;67.00;;;;;;5111402;28;20176;-65
2022/12/16 01:45:31;;;;;;;26.43;15.63;;;2.40;67.00;;;;;;5110135;28;20114;-65
2022/12/16 01:48:02;;;;;;;26.57;16.77;;;2.40;67.00;;;;;;5111635;28;20028;-65
2022/12/16 01:50:29;;;;;;;29.87;17.03;;;2.40;67.00;;;;;;5114497;28;20032;-65
2022/12/16 01:52:57;;;;;;;25.90;16.67;;;2.40;67.00;;;;;;5114772;28;20023;-65
2022/12/16 01:55:27;;;;;;;28.10;17.73;;;2.50;67.00;;;;;;5112660;28;20381;-65
2022/12/16 01:57:58;;;;;;;27.23;17.27;;;2.50;67.00;;;;;;5120341;27;20452;-66
2022/12/16 02:00:24;;;;;;;25.98;16.70;;;2.50;67.00;;;;;;5119200;27;20027;-65
2022/12/16 02:02:51;;;;;;;28.90;17.90;;;2.50;67.00;;;;;;5116520;27;20035;-65
2022/12/16 02:05:19;;;;;;;28.67;17.20;;;2.50;67.00;;;;;;5113548;28;20027;-66
2022/12/16 02:08:08;;;;;;;26.83;17.40;;;2.50;67.00;;;;;;5115337;28;20348;-66
2022/12/16 02:10:43;;;;;;;28.30;16.97;;;2.50;67.10;;;;;;5098486;28;20405;-65
2022/12/16 02:13:42;;;;;;;31.10;17.60;;;2.50;67.10;;;;;;5131810;27;20026;-65
2022/12/16 02:16:47;;;;;;;27.93;17.10;;;2.60;67.10;;;;;;5116911;28;20019;-66
2022/12/16 02:19:50;;;;;;;25.93;16.50;;;2.50;67.00;;;;;;5116292;28;20067;-66
2022/12/16 02:22:56;;;;;;;29.97;16.63;;;2.50;67.00;;;;;;5107610;28;20111;-66
2022/12/16 02:25:40;;;;;;;23.87;15.57;;;2.50;67.70;;;;;;5116860;27;20341;-66
2022/12/16 02:28:26;;;;;;;28.60;16.87;;;2.50;67.10;;;;;;5118704;27;20035;-66
2022/12/16 02:31:00;;;;;;;28.27;17.87;;;2.50;67.10;;;;;;5115922;28;20127;-66
2022/12/16 02:34:06;;;;;;;29.33;17.17;;;2.50;67.20;;;;;;5125805;27;20068;-66
2022/12/16 02:36:47;;;;;;;31.13;17.33;;;2.50;67.10;;;;;;5083441;28;20101;-66
2022/12/16 02:39:24;;;;;;;27.42;16.10;;;2.50;67.20;;;;;;5098091;28;20067;-66
2022/12/16 02:42:13;;;;;;;29.03;17.20;;;2.60;67.30;;;;;;5113563;27;20122;-66
2022/12/16 02:44:53;;;;;;;28.53;17.40;;;2.50;67.30;;;;;;5107300;28;20036;-66
2022/12/16 02:47:19;;;;;;;29.17;17.53;;;2.50;67.30;;;;;;5111659;28;20062;-66
2022/12/16 02:49:48;;;;;;;27.87;16.97;;;2.50;67.30;;;;;;5115796;28;20042;-66
2022/12/16 02:52:17;;;;;;;31.27;16.90;;;2.50;67.30;;;;;;5113266;28;20027;-66
2022/12/16 02:54:44;;;;;;;29.20;18.47;;;2.50;68.00;;;;;;5114959;28;20093;-66
2022/12/16 02:57:54;;;;;;;27.20;17.27;;;2.50;67.40;;;;;;5114744;28;20027;-66
2022/12/16 03:00:22;;;;;;;26.97;17.50;;;2.60;67.40;;;;;;5086974;28;20866;-66
2022/12/16 03:02:58;;;;;;;28.97;17.93;;;2.50;67.40;;;;;;5115596;28;20409;-66
2022/12/16 03:05:40;;;;;;;29.27;17.70;;;2.50;67.40;;;;;;5113272;28;20341;-66
2022/12/16 03:08:16;;;;;;;29.33;18.03;;;2.50;67.40;;;;;;5115589;28;20101;-66
2022/12/16 03:10:49;;;;;;;28.63;16.87;;;2.50;67.50;;;;;;5113711;28;20028;-66
2022/12/16 03:13:18;;;;;;;32.43;18.83;;;2.50;67.50;;;;;;5114545;28;20058;-66
2022/12/16 03:15:46;;;;;;;31.90;18.00;;;2.60;67.60;;;;;;5114954;28;20039;-67
2022/12/16 03:18:14;;;;;;;29.53;17.70;;;2.60;67.60;;;;;;5114994;28;20046;-66
2022/12/16 03:20:42;;;;;;;29.00;18.70;;;2.60;67.60;;;;;;5113367;28;20428;-66
2022/12/16 03:23:14;;;;;;;30.80;20.03;;;2.60;67.70;;;;;;5114584;28;20027;-66
2022/12/16 03:25:42;;;;;;;31.48;20.13;;;2.60;67.80;;;;;;5129110;27;20456;-66
2022/12/16 03:28:43;;;;;;;30.57;19.07;;;2.60;67.90;;;;;;5113988;27;20038;-66
2022/12/16 03:31:16;;;;;;;27.63;16.73;;;2.60;68.00;;;;;;5114469;28;20033;-66
2022/12/16 03:33:50;;;;;;;30.43;17.53;;;2.60;68.00;;;;;;5113445;28;20321;-66
2022/12/16 03:36:21;;;;;;;31.53;19.67;;;2.60;68.10;;;;;;5113391;28;20024;-66
2022/12/16 03:38:47;;;;;;;31.00;18.33;;;2.60;68.20;;;;;;5111622;28;20054;-66
2022/12/16 03:41:16;;;;;;;32.07;18.70;;;2.60;68.30;;;;;;5115057;28;20061;-66
2022/12/16 03:43:42;;;;;;;29.43;18.90;;;2.60;68.40;;;;;;5112551;28;20038;-66
2022/12/16 03:46:09;;;;;;;26.30;18.47;;;2.60;68.40;;;;;;5115235;28;20115;-66
2022/12/16 03:48:34;;;;;;;30.90;18.80;;;2.70;68.50;;;;;;5113520;28;20053;-66
2022/12/16 03:51:01;;;;;;;30.40;18.70;;;2.70;68.50;;;;;;5115163;28;20107;-66
2022/12/16 03:53:27;;;;;;;28.43;18.43;;;2.70;68.50;;;;;;5112159;28;20030;-66
2022/12/16 03:55:55;;;;;;;26.47;16.93;;;2.70;68.50;;;;;;5134344;27;20031;-67
2022/12/16 03:58:21;;;;;;;29.90;18.93;;;2.70;68.60;;;;;;5115846;27;20402;-66
2022/12/16 04:00:47;;;;;;;28.97;17.93;;;2.70;68.60;;;;;;5114835;28;20055;-66
2022/12/16 04:03:12;;;;;;;27.17;17.80;;;2.70;68.70;;;;;;5113265;28;20070;-66
2022/12/16 04:05:38;;;;;;;35.97;19.57;;;2.70;68.70;;;;;;5113087;28;20024;-67
2022/12/16 04:08:03;;;;;;;34.00;19.83;;;2.70;68.80;;;;;;5112591;28;20019;-66
2022/12/16 04:24:18;;;;;;;38.20;19.80;;;2.70;69.40;;;;;;5112902;27;20046;-66
2022/12/16 04:29:28;;;;;;;34.10;19.47;;;2.70;69.70;;;;;;5113295;28;20488;-66
2022/12/16 04:31:54;;;;;;;39.67;22.87;;;2.70;69.80;;;;;;5114261;28;20035;-66
2022/12/16 04:34:30;;;;;;;35.33;19.20;;;2.70;69.90;;;;;;5115088;28;20020;-67
